Terminal Aerodrome Forecast
Issued by NWS Tampa Bay Area, FL

Home | Current Version | Previous Version | Text Only | Print | Product List | Glossary On
Versions: 1 2 3 4 5 6 7 8 9 10 11 12 13 14 15 16 17 18 19 20 21 22 23 24
287
FTUS42 KTBW 212323
TAFTPA
TAF
KTPA 212323Z 2200/2224 05007KT P6SM SCT070
     FM220200 06003KT P6SM FEW250
     FM221400 05006KT P6SM FEW020 SCT250
     FM221800 04008KT P6SM VCTS SCT035CB=

USA.gov is the U.S. government's official web portal to all federal, state and local government web resources and services.